Time;durP1;ratioP1;P1;durP2;ratioP2;P2;SDS_P1;SDS_P2;PMS_P1;PMS_P2;Temp;Humidity;BMP_temperature;BMP_pressure;BME280_temperature;BME280_humidity;BME280_pressure;Samples;Min_cycle;Max_cycle;Signal;HPM_P1;HPM_P2
2024/04/11 00:01:15;;;;;;;5.07;3.43;;;16.30;84.50;;;;;;5461645;26;20526;-47
2024/04/11 00:03:45;;;;;;;6.80;4.60;;;16.30;84.30;;;;;;5465253;26;20458;-46
2024/04/11 00:06:12;;;;;;;4.53;3.33;;;16.30;84.30;;;;;;5462354;26;20837;-49
2024/04/11 00:08:42;;;;;;;5.93;3.80;;;16.30;84.30;;;;;;5465897;26;20579;-50
2024/04/11 00:11:10;;;;;;;4.10;3.30;;;16.30;84.70;;;;;;5471017;26;20461;-47
2024/04/11 00:13:40;;;;;;;5.23;3.27;;;16.30;84.70;;;;;;5460682;26;20451;-48
2024/04/11 00:16:09;;;;;;;4.80;3.50;;;16.30;84.40;;;;;;5467327;26;21002;-50
2024/04/11 00:18:41;;;;;;;4.27;3.67;;;16.30;84.70;;;;;;5461344;26;20494;-49
2024/04/11 00:21:09;;;;;;;4.50;3.57;;;16.30;84.70;;;;;;5459333;26;20442;-46
2024/04/11 00:23:39;;;;;;;3.30;2.53;;;16.30;84.70;;;;;;5471823;26;20506;-48
2024/04/11 00:26:07;;;;;;;5.07;3.77;;;16.40;84.80;;;;;;5474315;26;20567;-49
2024/04/11 00:28:38;;;;;;;4.10;3.10;;;16.30;84.70;;;;;;5470019;26;20519;-49
2024/04/11 00:31:05;;;;;;;5.50;3.90;;;16.30;84.70;;;;;;5466166;26;20473;-48
2024/04/11 00:33:37;;;;;;;4.90;2.90;;;16.30;84.70;;;;;;5471080;26;20455;-48
2024/04/11 00:36:11;;;;;;;3.77;3.20;;;16.30;84.90;;;;;;5468595;26;20484;-47
2024/04/11 00:38:42;;;;;;;6.13;3.47;;;16.30;85.00;;;;;;5463058;26;20459;-47
2024/04/11 00:41:09;;;;;;;4.83;3.30;;;16.30;84.80;;;;;;5460485;26;20454;-48
2024/04/11 00:43:39;;;;;;;5.03;3.37;;;16.30;84.90;;;;;;5456207;26;20511;-48
2024/04/11 00:46:06;;;;;;;5.50;3.63;;;16.30;84.70;;;;;;5466856;26;20449;-47
2024/04/11 00:48:39;;;;;;;5.53;3.27;;;16.30;84.90;;;;;;5464071;26;20462;-48
2024/04/11 00:51:10;;;;;;;5.27;3.50;;;16.30;84.70;;;;;;5476142;26;20442;-47
2024/04/11 00:53:40;;;;;;;5.00;3.40;;;16.30;84.70;;;;;;5463008;26;20866;-47
2024/04/11 00:56:08;;;;;;;5.57;3.17;;;16.30;84.70;;;;;;5466799;26;20549;-47
2024/04/11 00:58:39;;;;;;;3.90;3.27;;;16.30;84.80;;;;;;5469046;26;21014;-48
2024/04/11 01:01:06;;;;;;;4.30;3.30;;;16.30;84.70;;;;;;5466015;26;20517;-49
2024/04/11 01:03:37;;;;;;;3.50;2.87;;;16.30;84.70;;;;;;5470009;26;20503;-48
2024/04/11 01:06:04;;;;;;;4.53;3.13;;;16.30;84.80;;;;;;5473203;26;20473;-48
2024/04/11 01:08:37;;;;;;;4.13;2.70;;;16.30;84.90;;;;;;5461705;26;20802;-49
2024/04/11 01:11:04;;;;;;;3.73;3.00;;;16.30;84.80;;;;;;5466187;26;20707;-48
2024/04/11 01:13:34;;;;;;;5.13;3.43;;;16.30;84.90;;;;;;5459591;26;20455;-48
2024/04/11 01:16:03;;;;;;;5.23;3.90;;;16.30;85.00;;;;;;5480807;26;21056;-48
2024/04/11 01:18:33;;;;;;;3.33;2.57;;;16.30;85.00;;;;;;5461494;26;20503;-47
2024/04/11 01:21:01;;;;;;;4.00;3.40;;;16.30;85.20;;;;;;5463114;26;20451;-49
2024/04/11 01:23:34;;;;;;;4.30;3.40;;;16.30;85.10;;;;;;5469527;26;20544;-48
2024/04/11 01:26:05;;;;;;;4.83;3.17;;;16.30;85.30;;;;;;5467144;26;20546;-49
2024/04/11 01:28:35;;;;;;;5.80;3.20;;;16.20;85.40;;;;;;5460143;26;20502;-48
2024/04/11 01:31:03;;;;;;;4.07;3.00;;;16.20;85.30;;;;;;5464609;26;20518;-48
2024/04/11 01:33:33;;;;;;;3.27;2.70;;;16.20;84.80;;;;;;5466849;26;21024;-48
2024/04/11 01:36:03;;;;;;;3.10;2.60;;;16.20;85.10;;;;;;5468166;26;20451;-49
2024/04/11 01:38:36;;;;;;;4.53;2.83;;;16.20;85.20;;;;;;5465436;26;21063;-47
2024/04/11 01:41:03;;;;;;;3.00;2.27;;;16.20;85.30;;;;;;5472352;26;20457;-50
2024/04/11 01:43:34;;;;;;;3.27;2.67;;;16.20;85.40;;;;;;5468750;26;20796;-48
2024/04/11 01:46:02;;;;;;;3.10;2.40;;;16.20;85.50;;;;;;5477935;26;20577;-48
2024/04/11 01:48:32;;;;;;;3.60;2.40;;;16.20;85.50;;;;;;5453504;26;20471;-48
2024/04/11 01:51:00;;;;;;;4.17;3.10;;;16.20;85.40;;;;;;5468193;26;20526;-48
2024/04/11 01:53:30;;;;;;;3.30;2.60;;;16.20;85.50;;;;;;5463104;26;20461;-49
2024/04/11 01:56:04;;;;;;;3.80;3.20;;;16.20;85.50;;;;;;5466380;26;20514;-48
2024/04/11 01:58:34;;;;;;;3.60;3.00;;;16.20;85.60;;;;;;5471918;26;20475;-48
2024/04/11 02:01:05;;;;;;;3.40;2.80;;;16.20;85.80;;;;;;5468518;26;20466;-48
2024/04/11 02:03:38;;;;;;;4.53;3.20;;;16.20;85.90;;;;;;5474314;26;20573;-49
2024/04/11 02:06:07;;;;;;;3.93;2.87;;;16.20;86.00;;;;;;5468645;26;20513;-49
2024/04/11 02:08:37;;;;;;;4.10;2.70;;;16.20;86.20;;;;;;5466146;26;20537;-47
2024/04/11 02:11:07;;;;;;;3.90;2.80;;;16.20;86.20;;;;;;5469713;26;20530;-48
2024/04/11 02:13:38;;;;;;;3.10;2.60;;;16.20;86.30;;;;;;5472897;26;20462;-48
2024/04/11 02:16:06;;;;;;;4.97;3.13;;;16.20;86.20;;;;;;5470556;26;20473;-48
2024/04/11 02:18:36;;;;;;;3.80;2.53;;;16.20;86.30;;;;;;5458019;26;20470;-47
2024/04/11 02:21:04;;;;;;;3.40;2.20;;;16.20;86.50;;;;;;5468474;26;21050;-47
2024/04/11 02:23:34;;;;;;;4.07;2.37;;;16.10;86.40;;;;;;5471731;26;20545;-48
2024/04/11 02:26:02;;;;;;;3.60;2.90;;;16.20;86.70;;;;;;5468477;26;20526;-47
2024/04/11 02:28:35;;;;;;;3.30;2.67;;;16.10;86.60;;;;;;5463810;26;20592;-48
2024/04/11 02:31:02;;;;;;;3.00;2.53;;;16.10;86.60;;;;;;5461125;26;20471;-48
2024/04/11 02:33:33;;;;;;;3.40;3.10;;;16.10;86.40;;;;;;5472991;26;20457;-48
2024/04/11 02:36:00;;;;;;;3.53;2.20;;;16.10;86.40;;;;;;5466073;26;20463;-48
2024/04/11 02:38:30;;;;;;;4.70;2.90;;;16.10;86.30;;;;;;5459092;26;20467;-47
2024/04/11 02:40:57;;;;;;;2.57;2.10;;;16.10;86.20;;;;;;5489680;26;21058;-47
2024/04/11 02:43:28;;;;;;;2.63;2.20;;;16.10;86.10;;;;;;5456411;26;21172;-47
2024/04/11 02:45:58;;;;;;;3.40;2.20;;;16.10;86.30;;;;;;5466516;26;20573;-48
2024/04/11 02:48:28;;;;;;;2.47;2.10;;;16.10;86.30;;;;;;5465847;26;20466;-47
2024/04/11 02:50:57;;;;;;;4.10;2.90;;;16.10;86.30;;;;;;5472427;26;20467;-47
2024/04/11 02:53:27;;;;;;;4.47;3.13;;;16.10;86.30;;;;;;5466592;26;21111;-48
2024/04/11 02:55:54;;;;;;;2.77;2.47;;;16.10;86.50;;;;;;5467449;26;20544;-47
2024/04/11 02:58:24;;;;;;;3.33;2.80;;;16.10;86.30;;;;;;5464292;26;20794;-48
2024/04/11 03:01:01;;;;;;;4.73;3.17;;;16.10;86.50;;;;;;5471581;26;20462;-48
2024/04/11 03:03:32;;;;;;;3.43;2.57;;;16.10;86.40;;;;;;5465233;26;20459;-47
2024/04/11 03:06:06;;;;;;;4.10;2.57;;;16.10;86.30;;;;;;5468451;26;20511;-48
2024/04/11 03:08:36;;;;;;;3.43;2.47;;;16.10;86.40;;;;;;5469153;26;20573;-47
2024/04/11 03:11:03;;;;;;;5.27;3.00;;;16.10;86.30;;;;;;5468946;26;20455;-48
2024/04/11 03:13:33;;;;;;;3.73;2.80;;;16.10;86.50;;;;;;5469160;26;20584;-47
2024/04/11 03:16:04;;;;;;;3.07;2.67;;;16.10;86.50;;;;;;5468161;26;20455;-47
2024/04/11 03:18:34;;;;;;;3.17;2.33;;;16.00;86.60;;;;;;5461557;26;20470;-48
2024/04/11 03:21:05;;;;;;;2.60;2.33;;;16.00;86.70;;;;;;5468563;26;20569;-47
2024/04/11 03:23:35;;;;;;;3.87;2.37;;;16.00;86.70;;;;;;5451894;26;20459;-47
2024/04/11 03:26:03;;;;;;;4.10;2.40;;;16.00;86.80;;;;;;5469098;26;20540;-48
2024/04/11 03:28:34;;;;;;;3.60;2.70;;;16.00;86.90;;;;;;5456298;26;20582;-47
2024/04/11 03:31:05;;;;;;;3.70;2.57;;;16.00;86.70;;;;;;5467225;26;20577;-47
2024/04/11 03:33:35;;;;;;;2.47;2.27;;;16.00;86.60;;;;;;5464846;26;20467;-47
2024/04/11 03:36:05;;;;;;;3.47;2.50;;;16.00;86.80;;;;;;5469210;26;20467;-47
2024/04/11 03:38:36;;;;;;;3.03;2.67;;;16.00;86.80;;;;;;5461546;26;20530;-47
2024/04/11 03:41:04;;;;;;;4.40;2.07;;;16.00;86.90;;;;;;5468708;26;20519;-48
2024/04/11 03:43:34;;;;;;;4.17;2.57;;;16.00;87.10;;;;;;5469034;26;20461;-47
2024/04/11 03:46:11;;;;;;;2.83;2.30;;;16.00;87.00;;;;;;5470481;26;21085;-47
2024/04/11 03:48:41;;;;;;;2.50;2.00;;;16.00;86.60;;;;;;5468920;26;20514;-47
2024/04/11 03:51:13;;;;;;;4.40;2.67;;;16.00;86.80;;;;;;5473258;26;20520;-47
2024/04/11 03:53:43;;;;;;;3.67;2.53;;;16.00;86.60;;;;;;5467797;26;20455;-48
2024/04/11 03:56:14;;;;;;;3.53;2.17;;;16.00;86.60;;;;;;5465238;26;21319;-47
2024/04/11 03:58:45;;;;;;;3.20;2.47;;;16.00;86.60;;;;;;5462492;26;20552;-47
2024/04/11 04:01:18;;;;;;;2.77;2.40;;;16.00;88.10;;;;;;5464490;26;20469;-48
2024/04/11 04:03:47;;;;;;;3.80;2.10;;;16.00;86.90;;;;;;5473413;26;20441;-47
2024/04/11 04:06:18;;;;;;;3.87;2.97;;;16.00;86.80;;;;;;5469003;26;20449;-47
2024/04/11 04:08:47;;;;;;;2.80;2.27;;;15.90;86.80;;;;;;5462152;26;20569;-48
2024/04/11 04:11:20;;;;;;;4.20;2.90;;;15.90;87.00;;;;;;5469776;26;20454;-48
2024/04/11 04:13:48;;;;;;;3.23;2.40;;;15.90;86.80;;;;;;5464042;26;20517;-47
2024/04/11 04:16:22;;;;;;;4.03;2.30;;;15.90;86.60;;;;;;5470233;26;20438;-47
2024/04/11 04:18:50;;;;;;;3.33;1.90;;;16.00;86.70;;;;;;5463819;26;21109;-47
2024/04/11 04:21:26;;;;;;;2.50;1.70;;;15.90;86.90;;;;;;5470066;26;20460;-47
2024/04/11 04:23:55;;;;;;;3.27;2.27;;;15.90;86.60;;;;;;5473382;26;20542;-47
2024/04/11 04:26:30;;;;;;;4.10;2.87;;;15.90;86.80;;;;;;5468227;26;20445;-48
2024/04/11 04:28:58;;;;;;;2.90;2.17;;;15.90;86.40;;;;;;5460300;26;20511;-47
2024/04/11 04:31:32;;;;;;;2.90;2.47;;;15.90;86.50;;;;;;5466864;26;20567;-48
2024/04/11 04:34:00;;;;;;;2.27;2.00;;;15.90;86.30;;;;;;5466633;26;20586;-47
2024/04/11 04:36:33;;;;;;;8.17;2.23;;;15.90;86.00;;;;;;5475066;26;20575;-47
2024/04/11 04:39:04;;;;;;;2.73;1.80;;;15.90;86.60;;;;;;5466417;26;20546;-48
2024/04/11 04:41:37;;;;;;;5.43;1.97;;;15.90;86.30;;;;;;5464726;26;20515;-48
2024/04/11 04:44:05;;;;;;;3.23;2.10;;;15.90;86.60;;;;;;5467562;26;20461;-47
2024/04/11 04:46:39;;;;;;;3.40;2.13;;;15.80;86.40;;;;;;5469571;26;20534;-47
2024/04/11 04:49:09;;;;;;;3.93;2.20;;;15.90;86.40;;;;;;5475230;26;20513;-47
2024/04/11 04:51:43;;;;;;;4.10;3.70;;;15.90;86.50;;;;;;5475411;26;20816;-47
2024/04/11 04:54:11;;;;;;;2.47;2.03;;;15.90;86.30;;;;;;5463313;26;20470;-48
2024/04/11 04:56:45;;;;;;;4.30;2.30;;;15.80;85.30;;;;;;5472317;26;20514;-47
2024/04/11 04:59:12;;;;;;;2.23;2.00;;;15.80;85.90;;;;;;5461747;26;20473;-47
2024/04/11 05:01:45;;;;;;;3.10;1.90;;;15.80;85.70;;;;;;5472014;26;20813;-48
2024/04/11 05:04:13;;;;;;;3.80;2.43;;;15.80;85.00;;;;;;5464220;26;20457;-47
2024/04/11 05:06:46;;;;;;;3.10;1.60;;;15.80;85.60;;;;;;5472784;26;20443;-48
2024/04/11 05:09:13;;;;;;;2.60;1.90;;;15.80;85.80;;;;;;5464144;26;20935;-48
2024/04/11 05:11:44;;;;;;;2.73;1.80;;;15.80;85.40;;;;;;5473884;26;21075;-47
2024/04/11 05:14:12;;;;;;;3.03;1.80;;;15.80;85.00;;;;;;5470876;26;20579;-47
2024/04/11 05:16:44;;;;;;;3.10;2.20;;;15.80;85.70;;;;;;5474934;26;20514;-47
2024/04/11 05:19:15;;;;;;;4.47;2.00;;;15.70;85.80;;;;;;5462573;26;20461;-47
2024/04/11 05:21:46;;;;;;;3.30;1.90;;;15.80;85.90;;;;;;5475698;26;20507;-47
2024/04/11 05:24:14;;;;;;;4.50;2.00;;;15.80;86.00;;;;;;5470472;26;20465;-48
2024/04/11 05:26:48;;;;;;;2.57;1.87;;;15.80;86.00;;;;;;5473796;26;20455;-47
2024/04/11 05:29:17;;;;;;;2.57;2.10;;;15.80;86.20;;;;;;5464918;26;20480;-47
2024/04/11 05:31:50;;;;;;;3.10;2.23;;;15.70;86.40;;;;;;5466430;26;20498;-48
2024/04/11 05:34:20;;;;;;;3.13;1.97;;;15.70;86.20;;;;;;5471891;26;20559;-47
2024/04/11 05:36:51;;;;;;;3.03;1.83;;;15.70;86.40;;;;;;5470807;26;20806;-48
2024/04/11 05:39:20;;;;;;;3.77;2.23;;;15.80;85.70;;;;;;5475809;26;20458;-49
2024/04/11 05:41:51;;;;;;;3.03;2.00;;;15.70;86.40;;;;;;5479684;26;20513;-48
2024/04/11 05:44:19;;;;;;;3.60;1.90;;;15.70;86.30;;;;;;5463841;26;20497;-47
2024/04/11 05:46:52;;;;;;;3.50;2.27;;;15.70;86.10;;;;;;5468257;26;20503;-47
2024/04/11 05:49:20;;;;;;;3.13;1.87;;;15.70;86.00;;;;;;5468510;26;20524;-47
2024/04/11 05:51:51;;;;;;;2.70;2.00;;;15.70;86.30;;;;;;5466739;26;20459;-47
2024/04/11 05:54:18;;;;;;;3.13;2.00;;;15.70;86.20;;;;;;5472920;26;20884;-47
2024/04/11 05:56:50;;;;;;;2.80;1.50;;;15.70;86.30;;;;;;5479294;26;20506;-47
2024/04/11 05:59:19;;;;;;;3.50;1.87;;;15.70;86.50;;;;;;5471972;26;20878;-47
2024/04/11 06:01:52;;;;;;;3.17;2.00;;;15.70;86.30;;;;;;5466110;26;20450;-47
2024/04/11 06:04:25;;;;;;;2.03;1.67;;;15.70;86.60;;;;;;5471472;26;21018;-46
2024/04/11 06:06:55;;;;;;;2.63;2.07;;;15.70;86.70;;;;;;5471385;26;20525;-47
2024/04/11 06:09:22;;;;;;;2.13;1.60;;;15.70;86.80;;;;;;5476938;26;20461;-47
2024/04/11 06:11:53;;;;;;;2.47;2.07;;;15.70;87.00;;;;;;5462740;26;20569;-48
2024/04/11 06:14:20;;;;;;;3.03;2.20;;;15.70;86.60;;;;;;5469209;26;21037;-47
2024/04/11 06:16:53;;;;;;;3.10;2.20;;;15.70;86.30;;;;;;5480334;26;20985;-47
2024/04/11 06:19:21;;;;;;;2.40;1.93;;;15.70;86.70;;;;;;5470229;26;20469;-47
2024/04/11 06:21:53;;;;;;;2.90;1.90;;;15.70;86.50;;;;;;5465692;26;20475;-47
2024/04/11 06:24:20;;;;;;;3.47;2.20;;;15.70;86.70;;;;;;5469566;26;20469;-47
2024/04/11 06:26:51;;;;;;;2.37;1.60;;;15.70;86.90;;;;;;5473512;26;20466;-48
2024/04/11 06:29:22;;;;;;;2.20;1.53;;;15.70;86.80;;;;;;5487539;26;20464;-47
2024/04/11 06:32:00;;;;;;;3.63;2.57;;;15.70;86.40;;;;;;5465690;26;20462;-47
2024/04/11 06:34:28;;;;;;;3.70;2.20;;;15.70;87.00;;;;;;5469263;26;20514;-47
2024/04/11 06:36:58;;;;;;;2.47;2.07;;;15.70;86.90;;;;;;5460101;26;21065;-47
2024/04/11 06:39:25;;;;;;;2.20;1.87;;;15.70;87.00;;;;;;5476037;26;20571;-47
2024/04/11 06:41:58;;;;;;;3.40;2.27;;;15.60;86.80;;;;;;5467877;26;20565;-47
2024/04/11 06:44:26;;;;;;;3.57;2.33;;;15.70;86.60;;;;;;5461990;26;20457;-47
2024/04/11 06:46:58;;;;;;;3.13;1.90;;;15.60;87.00;;;;;;5468948;26;21097;-47
2024/04/11 06:49:26;;;;;;;3.20;2.20;;;15.60;86.90;;;;;;5483698;26;21048;-48
2024/04/11 06:51:55;;;;;;;4.10;2.17;;;15.70;87.10;;;;;;5463326;26;20511;-47
2024/04/11 06:54:26;;;;;;;3.03;1.87;;;15.60;87.20;;;;;;5472374;26;20505;-47
2024/04/11 06:56:57;;;;;;;2.03;1.47;;;15.60;87.40;;;;;;5460338;26;20447;-47
2024/04/11 06:59:24;;;;;;;2.23;1.80;;;15.60;87.50;;;;;;5468172;26;20465;-47
2024/04/11 07:01:58;;;;;;;2.50;2.30;;;15.70;87.60;;;;;;5467880;26;20455;-47
2024/04/11 07:04:29;;;;;;;5.73;1.77;;;15.60;87.70;;;;;;5468447;26;20532;-47
2024/04/11 07:07:00;;;;;;;3.37;2.13;;;15.60;87.20;;;;;;5469010;26;20526;-47
2024/04/11 07:09:37;;;;;;;2.77;1.70;;;15.60;87.70;;;;;;5470793;26;20469;-48
2024/04/11 07:12:10;;;;;;;2.23;1.73;;;15.60;87.10;;;;;;5485226;26;20575;-49
2024/04/11 07:14:38;;;;;;;4.10;2.10;;;15.60;88.10;;;;;;5472439;26;20528;-49
2024/04/11 07:17:11;;;;;;;4.65;2.50;;;15.50;78.40;;;;;;5476473;26;20954;-48
2024/04/11 07:19:42;;;;;;;5.07;1.70;;;15.40;76.40;;;;;;5477507;26;20662;-49
2024/04/11 07:22:18;;;;;;;3.00;1.53;;;15.30;80.40;;;;;;5472186;26;21065;-48
2024/04/11 07:24:45;;;;;;;3.80;2.00;;;15.40;82.10;;;;;;5470842;26;20447;-47
2024/04/11 07:27:17;;;;;;;3.13;1.80;;;15.40;83.10;;;;;;5470306;26;20509;-47
2024/04/11 07:29:46;;;;;;;4.00;2.13;;;15.40;83.50;;;;;;5463652;26;20458;-47
2024/04/11 07:32:18;;;;;;;6.90;2.23;;;15.50;83.10;;;;;;5471327;26;20494;-47
2024/04/11 07:34:48;;;;;;;2.70;1.60;;;15.50;83.80;;;;;;5472549;26;20523;-47
2024/04/11 07:37:18;;;;;;;6.00;2.03;;;15.50;83.90;;;;;;5472647;26;20457;-47
2024/04/11 07:39:45;;;;;;;2.60;1.80;;;15.50;84.00;;;;;;5468041;26;20467;-48
2024/04/11 07:42:47;;;;;;;3.63;1.70;;;15.50;84.20;;;;;;5472093;26;20450;-47
2024/04/11 07:45:08;;;;;;;5.33;1.67;;;15.50;84.40;;;;;;5471425;26;20457;-48
2024/04/11 07:47:38;;;;;;;2.07;1.33;;;15.50;84.00;;;;;;5477754;26;20509;-48
2024/04/11 07:50:26;;;;;;;3.43;1.87;;;15.50;83.60;;;;;;5466119;26;20528;-47
2024/04/11 07:52:57;;;;;;;1.73;1.30;;;15.50;84.30;;;;;;5466956;26;20462;-47
2024/04/11 07:55:25;;;;;;;3.63;1.87;;;15.50;84.70;;;;;;5472338;26;20525;-47
2024/04/11 07:57:55;;;;;;;3.63;1.70;;;15.50;84.10;;;;;;5473631;26;20775;-47
2024/04/11 08:00:27;;;;;;;3.43;2.03;;;15.50;84.20;;;;;;5470586;26;20947;-47
2024/04/11 08:02:57;;;;;;;5.70;1.93;;;15.50;83.90;;;;;;5461145;26;20507;-47
2024/04/11 08:05:28;;;;;;;4.03;1.90;;;15.50;85.20;;;;;;5471232;26;20458;-47
2024/04/11 08:07:59;;;;;;;3.93;1.30;;;15.50;84.60;;;;;;5473406;26;20508;-47
2024/04/11 08:10:28;;;;;;;3.10;1.73;;;15.50;85.10;;;;;;5469500;26;20453;-48
2024/04/11 08:12:58;;;;;;;3.50;1.37;;;15.50;85.70;;;;;;5465109;26;20443;-47
2024/04/11 08:15:25;;;;;;;3.40;1.77;;;15.50;86.00;;;;;;5466259;26;20461;-47
2024/04/11 08:17:55;;;;;;;3.93;1.60;;;15.50;85.70;;;;;;5467061;26;20514;-47
2024/04/11 08:20:24;;;;;;;3.67;1.70;;;15.50;85.80;;;;;;5474228;26;21029;-47
2024/04/11 08:22:58;;;;;;;5.17;1.47;;;15.50;85.40;;;;;;5475957;26;20457;-47
2024/04/11 08:25:31;;;;;;;2.70;1.83;;;15.50;85.60;;;;;;5472730;26;20543;-47
2024/04/11 08:28:02;;;;;;;3.00;1.27;;;15.50;85.60;;;;;;5465464;26;22795;-47
2024/04/11 08:30:29;;;;;;;2.50;1.67;;;15.50;85.70;;;;;;5466479;26;20506;-47
2024/04/11 08:32:59;;;;;;;2.97;2.23;;;15.50;85.00;;;;;;5465652;26;20447;-47
2024/04/11 08:35:27;;;;;;;3.53;1.70;;;15.50;86.20;;;;;;5468279;26;20574;-47
2024/04/11 08:38:02;;;;;;;2.73;1.50;;;15.50;85.30;;;;;;5470003;26;20509;-47
2024/04/11 08:40:33;;;;;;;2.60;1.67;;;15.50;85.20;;;;;;5484483;26;20915;-47
2024/04/11 08:43:04;;;;;;;3.00;1.43;;;15.50;85.60;;;;;;5466444;26;20447;-47
2024/04/11 08:45:34;;;;;;;4.70;1.27;;;15.50;85.70;;;;;;5465715;26;20578;-47
2024/04/11 08:48:05;;;;;;;2.23;1.10;;;15.50;86.00;;;;;;5473769;26;20571;-47
2024/04/11 08:50:34;;;;;;;4.40;1.57;;;15.50;85.80;;;;;;5466909;26;20470;-47
2024/04/11 08:53:11;;;;;;;3.33;1.47;;;15.50;85.10;;;;;;5475817;26;20474;-47
2024/04/11 08:55:40;;;;;;;2.43;1.30;;;15.50;86.30;;;;;;5471265;26;20927;-47
2024/04/11 08:58:11;;;;;;;4.17;1.83;;;15.50;86.40;;;;;;5464519;26;20569;-46
2024/04/11 09:00:40;;;;;;;3.13;1.60;;;15.50;85.80;;;;;;5462352;26;20466;-48
2024/04/11 09:03:15;;;;;;;1.77;1.20;;;15.50;86.70;;;;;;5475663;26;20446;-47
2024/04/11 09:05:46;;;;;;;1.90;1.10;;;15.50;86.30;;;;;;5471999;26;20462;-47
2024/04/11 09:08:25;;;;;;;2.20;1.30;;;15.50;87.00;;;;;;5473081;26;20506;-49
2024/04/11 09:10:54;;;;;;;2.77;1.77;;;15.50;86.80;;;;;;5473883;26;20462;-48
2024/04/11 09:13:25;;;;;;;3.17;1.70;;;15.50;87.30;;;;;;5462195;26;20527;-48
2024/04/11 09:16:04;;;;;;;3.47;1.47;;;15.50;87.00;;;;;;5480503;26;20461;-47
2024/04/11 09:18:34;;;;;;;2.93;1.37;;;15.50;87.30;;;;;;5472670;26;20469;-48
2024/04/11 09:21:04;;;;;;;3.03;1.20;;;15.50;87.60;;;;;;5473492;26;20513;-47
2024/04/11 09:23:47;;;;;;;1.80;1.20;;;15.40;86.80;;;;;;5468882;26;20465;-47
2024/04/11 09:26:14;;;;;;;3.07;1.30;;;15.40;86.80;;;;;;5477848;26;20514;-47
2024/04/11 09:28:44;;;;;;;2.20;1.10;;;15.40;87.60;;;;;;5456886;26;20576;-47
2024/04/11 09:31:12;;;;;;;2.17;1.13;;;15.50;87.60;;;;;;5467081;26;20457;-45
2024/04/11 09:33:42;;;;;;;2.83;1.33;;;15.40;87.10;;;;;;5471918;26;20524;-47
2024/04/11 09:36:11;;;;;;;2.80;1.40;;;15.40;87.90;;;;;;5467520;26;20601;-47
2024/04/11 09:38:53;;;;;;;2.80;1.50;;;15.40;87.80;;;;;;5466843;26;20514;-46
2024/04/11 09:41:20;;;;;;;2.13;1.27;;;15.40;87.30;;;;;;5466680;26;20783;-46
2024/04/11 09:43:55;;;;;;;1.97;1.10;;;15.40;87.70;;;;;;5471910;26;20803;-47
2024/04/11 09:46:24;;;;;;;2.27;1.20;;;15.40;87.70;;;;;;5476153;26;21110;-48
2024/04/11 09:48:56;;;;;;;2.73;1.50;;;15.40;87.70;;;;;;5471366;26;20453;-47
2024/04/11 09:51:23;;;;;;;4.03;1.10;;;15.40;87.80;;;;;;5472970;26;20450;-47
2024/04/11 09:53:57;;;;;;;3.80;1.13;;;15.40;88.10;;;;;;5466370;26;20482;-47
2024/04/11 09:56:25;;;;;;;2.60;1.70;;;15.40;88.10;;;;;;5471761;26;21065;-47
2024/04/11 09:58:57;;;;;;;4.93;1.50;;;15.40;88.50;;;;;;5466653;26;20469;-47
2024/04/11 10:01:31;;;;;;;5.30;1.60;;;15.40;88.50;;;;;;5464960;26;21088;-47
2024/04/11 10:04:04;;;;;;;6.10;1.30;;;15.40;88.50;;;;;;5479252;26;20441;-48
2024/04/11 10:06:35;;;;;;;2.77;1.20;;;15.40;88.50;;;;;;5478270;26;20594;-46
2024/04/11 10:09:17;;;;;;;2.57;1.10;;;15.40;88.50;;;;;;5474291;26;20830;-46
2024/04/11 10:11:47;;;;;;;2.50;1.70;;;15.40;88.50;;;;;;5479620;26;20536;-47
2024/04/11 10:14:20;;;;;;;2.47;1.53;;;15.40;88.60;;;;;;5458420;26;20450;-47
2024/04/11 10:16:53;;;;;;;4.33;1.30;;;15.40;88.50;;;;;;5475192;26;20499;-45
2024/04/11 10:19:31;;;;;;;5.73;1.40;;;15.40;88.50;;;;;;5477760;26;20472;-45
2024/04/11 10:22:01;;;;;;;2.97;1.47;;;15.40;88.50;;;;;;5471602;26;20458;-48
2024/04/11 10:24:35;;;;;;;2.80;2.33;;;15.40;88.50;;;;;;5475094;26;21042;-47
2024/04/11 10:27:09;;;;;;;3.00;1.20;;;15.40;88.50;;;;;;5479975;26;20870;-48
2024/04/11 10:29:43;;;;;;;2.20;1.20;;;15.40;88.80;;;;;;5473274;26;21146;-49
2024/04/11 10:32:14;;;;;;;1.50;1.10;;;15.40;88.80;;;;;;5476480;26;20457;-48
2024/04/11 10:34:47;;;;;;;2.23;1.20;;;15.40;90.00;;;;;;5477751;26;20459;-47
2024/04/11 10:37:23;;;;;;;1.50;1.10;;;15.40;89.20;;;;;;5465132;26;20455;-47
2024/04/11 10:39:58;;;;;;;1.63;1.00;;;15.40;89.40;;;;;;5463045;26;20518;-48
2024/04/11 10:42:36;;;;;;;3.77;1.70;;;15.40;89.60;;;;;;5474299;26;20465;-48
2024/04/11 10:45:17;;;;;;;3.20;1.90;;;15.40;89.70;;;;;;5479029;26;20582;-45
2024/04/11 10:47:44;;;;;;;3.13;1.37;;;15.40;90.00;;;;;;5468865;26;20792;-48
2024/04/11 10:50:15;;;;;;;1.47;1.07;;;15.40;90.00;;;;;;5459452;26;20521;-47
2024/04/11 10:52:45;;;;;;;1.90;1.10;;;15.40;90.10;;;;;;5469581;26;20470;-48
2024/04/11 10:55:28;;;;;;;2.70;1.23;;;15.40;90.00;;;;;;5467682;26;20453;-48
2024/04/11 10:58:08;;;;;;;2.30;1.20;;;15.40;90.10;;;;;;5467009;26;20455;-47
2024/04/11 11:03:40;;;;;;;1.40;0.90;;;15.40;90.20;;;;;;5468106;26;20461;-48
2024/04/11 11:06:12;;;;;;;1.77;1.20;;;15.40;90.20;;;;;;5472973;26;20464;-47
2024/04/11 11:08:45;;;;;;;2.03;1.30;;;15.40;90.20;;;;;;5474825;26;20823;-46
2024/04/11 11:11:18;;;;;;;2.53;1.40;;;15.40;90.30;;;;;;5466081;26;20461;-47
2024/04/11 11:13:52;;;;;;;1.90;1.03;;;15.40;90.30;;;;;;5465369;26;20518;-47
2024/04/11 11:16:25;;;;;;;2.10;1.07;;;15.40;90.30;;;;;;5474101;26;20454;-47
2024/04/11 11:18:54;;;;;;;3.00;1.10;;;15.40;90.30;;;;;;5471150;26;20467;-47
2024/04/11 11:21:25;;;;;;;1.53;0.97;;;15.40;90.40;;;;;;5480501;26;21017;-49
2024/04/11 11:23:59;;;;;;;2.63;1.10;;;15.40;90.40;;;;;;5483635;26;20462;-48
2024/04/11 11:26:43;;;;;;;1.53;0.93;;;15.40;90.50;;;;;;5475515;26;20555;-47
2024/04/11 11:29:12;;;;;;;1.60;0.90;;;15.40;90.60;;;;;;5457090;26;21050;-48
2024/04/11 11:31:43;;;;;;;1.90;1.20;;;15.40;90.60;;;;;;5475079;26;20586;-47
2024/04/11 11:34:10;;;;;;;2.30;1.17;;;15.40;90.50;;;;;;5475741;26;20442;-47
2024/04/11 11:36:44;;;;;;;2.50;1.10;;;15.40;90.50;;;;;;5472211;26;20461;-45
2024/04/11 11:39:17;;;;;;;2.03;1.27;;;15.40;90.60;;;;;;5470323;26;20473;-49
2024/04/11 11:42:08;;;;;;;2.17;1.03;;;15.40;90.60;;;;;;5475297;26;20558;-50
2024/04/11 11:45:05;;;;;;;5.33;1.40;;;15.40;90.70;;;;;;5468298;26;21175;-50
2024/04/11 11:47:36;;;;;;;2.03;1.03;;;15.40;90.80;;;;;;5475168;26;20570;-50
2024/04/11 11:50:07;;;;;;;2.13;1.20;;;15.40;90.80;;;;;;5478533;26;20866;-50
2024/04/11 11:52:39;;;;;;;2.47;1.20;;;15.40;90.90;;;;;;5472727;26;20469;-50
2024/04/11 11:55:16;;;;;;;4.67;1.87;;;15.40;91.00;;;;;;5466300;26;20538;-48
2024/04/11 11:57:54;;;;;;;2.10;1.60;;;15.40;91.00;;;;;;5471380;26;20467;-49
2024/04/11 12:00:32;;;;;;;1.57;1.30;;;15.40;91.00;;;;;;5467536;26;20461;-48
2024/04/11 12:03:11;;;;;;;2.63;1.37;;;15.40;91.00;;;;;;5472775;26;21128;-48
2024/04/11 12:05:50;;;;;;;3.27;1.53;;;15.40;91.00;;;;;;5475375;26;20461;-48
2024/04/11 12:08:24;;;;;;;2.37;1.50;;;15.40;91.00;;;;;;5472210;26;20498;-50
2024/04/11 12:13:45;;;;;;;1.70;1.27;;;15.40;91.10;;;;;;5461001;26;20459;-48
2024/04/11 12:16:15;;;;;;;2.30;1.30;;;15.40;91.20;;;;;;5471512;26;20505;-48
2024/04/11 12:18:48;;;;;;;1.20;0.83;;;15.40;91.20;;;;;;5477414;26;20504;-48
2024/04/11 12:21:25;;;;;;;2.90;0.90;;;15.40;91.20;;;;;;5467798;26;20449;-49
2024/04/11 12:23:57;;;;;;;2.70;1.50;;;15.40;91.30;;;;;;5484544;26;20588;-50
2024/04/11 12:26:29;;;;;;;3.03;1.30;;;15.50;91.40;;;;;;5478633;26;21042;-50
2024/04/11 12:29:03;;;;;;;3.00;1.20;;;15.50;91.40;;;;;;5473770;26;20514;-50
2024/04/11 12:31:32;;;;;;;2.30;1.40;;;15.50;91.30;;;;;;5481667;26;20574;-48
2024/04/11 12:34:04;;;;;;;2.43;1.10;;;15.60;91.30;;;;;;5480760;26;20521;-49
2024/04/11 12:36:50;;;;;;;1.93;1.20;;;15.60;91.20;;;;;;5482248;26;20506;-49
2024/04/11 12:39:32;;;;;;;2.30;1.20;;;15.60;91.20;;;;;;5462209;26;20553;-49
2024/04/11 12:42:00;;;;;;;1.70;1.30;;;15.70;91.20;;;;;;5472248;26;20567;-48
2024/04/11 12:44:36;;;;;;;1.40;1.07;;;15.70;91.10;;;;;;5463520;26;20509;-48
2024/04/11 12:47:13;;;;;;;1.70;1.20;;;15.70;91.00;;;;;;5477982;26;20505;-51
2024/04/11 12:49:47;;;;;;;1.43;1.00;;;15.80;91.00;;;;;;5468645;26;20515;-50
2024/04/11 12:52:22;;;;;;;3.63;1.50;;;15.80;91.10;;;;;;5464913;26;20505;-50
2024/04/11 12:54:58;;;;;;;1.97;1.00;;;15.80;91.00;;;;;;5474360;26;20568;-49
2024/04/11 12:57:28;;;;;;;1.40;0.90;;;15.80;91.00;;;;;;5472654;26;20449;-49
2024/04/11 13:00:07;;;;;;;4.97;1.30;;;15.80;90.90;;;;;;5468508;26;20469;-51
2024/04/11 13:02:39;;;;;;;2.60;1.20;;;15.80;90.90;;;;;;5475450;26;20457;-49
2024/04/11 13:05:13;;;;;;;1.40;0.90;;;15.90;91.00;;;;;;5479896;26;20449;-48
2024/04/11 13:07:42;;;;;;;1.30;0.90;;;15.90;90.90;;;;;;5469910;26;20457;-49
2024/04/11 13:10:12;;;;;;;1.90;1.10;;;15.90;90.90;;;;;;5464720;26;20567;-48
2024/04/11 13:12:43;;;;;;;1.90;1.00;;;15.90;90.90;;;;;;5468938;26;20469;-51
2024/04/11 13:15:19;;;;;;;1.50;0.93;;;15.90;90.90;;;;;;5475275;26;21120;-48